Time;durP1;ratioP1;P1;durP2;ratioP2;P2;SDS_P1;SDS_P2;PMS_P1;PMS_P2;Temp;Humidity;BMP_temperature;BMP_pressure;BME280_temperature;BME280_humidity;BME280_pressure;Samples;Min_cycle;Max_cycle;Signal;HPM_P1;HPM_P2
2023/01/26 00:01:37;;;;;;;20.00;7.68;;;1.80;99.90;;;;;;5092276;28;20818;-60
2023/01/26 00:04:03;;;;;;;18.70;8.05;;;1.80;99.90;;;;;;5108974;28;20073;-60
2023/01/26 00:06:28;;;;;;;19.98;8.02;;;1.80;99.90;;;;;;5065227;28;20032;-60
2023/01/26 00:08:56;;;;;;;19.60;8.70;;;1.90;99.90;;;;;;5107568;28;20099;-60
2023/01/26 00:11:25;;;;;;;17.75;8.32;;;1.90;99.90;;;;;;5086327;28;20035;-60
2023/01/26 00:13:51;;;;;;;15.38;7.90;;;1.80;99.90;;;;;;5106947;28;20483;-60
2023/01/26 00:16:17;;;;;;;21.73;8.13;;;1.80;99.90;;;;;;5087070;28;20103;-60
2023/01/26 00:18:43;;;;;;;23.15;9.00;;;1.80;99.90;;;;;;5108102;28;20119;-60
2023/01/26 00:21:13;;;;;;;18.10;8.18;;;1.90;99.90;;;;;;5096506;28;20134;-60
2023/01/26 00:23:38;;;;;;;21.10;8.73;;;1.90;99.90;;;;;;5067846;28;20271;-60
2023/01/26 00:26:09;;;;;;;22.27;8.82;;;1.90;99.90;;;;;;5105303;28;20383;-60
2023/01/26 00:28:34;;;;;;;26.83;8.55;;;1.90;99.90;;;;;;5087044;28;20028;-59
2023/01/26 00:31:05;;;;;;;20.85;8.80;;;1.90;99.90;;;;;;5096508;28;20044;-60
2023/01/26 00:33:31;;;;;;;19.50;8.27;;;1.90;99.90;;;;;;5108330;28;20526;-59
2023/01/26 00:35:56;;;;;;;22.52;8.50;;;1.90;99.90;;;;;;5094946;28;20035;-59
2023/01/26 00:38:22;;;;;;;26.45;9.35;;;1.90;99.90;;;;;;5088763;28;20285;-59
2023/01/26 00:40:48;;;;;;;25.48;8.65;;;1.80;99.90;;;;;;5105817;28;20040;-59
2023/01/26 00:43:13;;;;;;;25.25;10.15;;;1.80;99.90;;;;;;5108433;28;20066;-59
2023/01/26 00:45:39;;;;;;;19.20;8.25;;;1.80;99.90;;;;;;5092694;28;20023;-59
2023/01/26 00:48:05;;;;;;;27.02;9.85;;;1.80;99.90;;;;;;5107833;28;20038;-59
2023/01/26 00:50:30;;;;;;;21.20;8.75;;;1.80;99.90;;;;;;5091241;28;20444;-59
2023/01/26 00:52:56;;;;;;;22.17;8.30;;;1.80;99.90;;;;;;5108487;28;20026;-59
2023/01/26 00:55:21;;;;;;;20.27;8.77;;;1.80;99.90;;;;;;5090055;28;20051;-59
2023/01/26 00:57:48;;;;;;;26.20;9.18;;;1.90;99.90;;;;;;5107944;28;20480;-59
2023/01/26 01:00:15;;;;;;;22.05;8.57;;;1.80;99.90;;;;;;5087018;28;20028;-59
2023/01/26 01:02:42;;;;;;;15.82;7.05;;;1.90;99.90;;;;;;5108129;28;20035;-59
2023/01/26 01:05:08;;;;;;;21.27;8.70;;;1.80;99.90;;;;;;5084803;28;20050;-59
2023/01/26 01:07:33;;;;;;;20.65;8.27;;;1.80;99.90;;;;;;5086913;28;20032;-59
2023/01/26 01:09:59;;;;;;;23.77;8.73;;;1.80;99.90;;;;;;5105195;28;20449;-59
2023/01/26 01:12:25;;;;;;;21.20;8.40;;;1.80;99.90;;;;;;5107620;28;20476;-59
2023/01/26 01:14:51;;;;;;;24.08;10.20;;;1.80;99.90;;;;;;5088322;28;20032;-59
2023/01/26 01:17:16;;;;;;;20.45;9.00;;;1.80;99.90;;;;;;5087714;28;20101;-59
2023/01/26 01:19:42;;;;;;;26.23;10.02;;;1.80;99.90;;;;;;5086064;28;20184;-59
2023/01/26 01:22:08;;;;;;;23.23;8.75;;;1.80;99.90;;;;;;5086650;28;20032;-59
2023/01/26 01:24:34;;;;;;;20.65;8.18;;;1.90;99.90;;;;;;5084835;28;20055;-59
2023/01/26 01:27:00;;;;;;;20.27;8.02;;;1.80;99.90;;;;;;5107056;28;20054;-59
2023/01/26 01:29:26;;;;;;;20.77;9.13;;;1.90;99.90;;;;;;5085947;28;20097;-59
2023/01/26 01:31:51;;;;;;;27.65;8.98;;;1.90;99.90;;;;;;5107121;28;20039;-59
2023/01/26 01:34:17;;;;;;;27.10;9.15;;;2.00;99.90;;;;;;5088163;28;20399;-59
2023/01/26 01:36:42;;;;;;;24.90;9.27;;;1.90;99.90;;;;;;5108617;28;20016;-59
2023/01/26 01:39:08;;;;;;;23.58;9.13;;;1.90;99.90;;;;;;5111307;28;20736;-59
2023/01/26 01:41:33;;;;;;;29.25;10.07;;;1.90;99.90;;;;;;5094891;28;20055;-58
2023/01/26 01:44:13;;;;;;;26.25;9.77;;;1.90;99.90;;;;;;5111375;28;20032;-59
2023/01/26 01:46:45;;;;;;;26.38;9.63;;;1.90;99.90;;;;;;5079658;28;20028;-59
2023/01/26 01:49:19;;;;;;;19.63;9.32;;;1.90;99.90;;;;;;5111222;27;20023;-59
2023/01/26 01:52:03;;;;;;;23.67;8.90;;;1.80;99.90;;;;;;5082301;28;20441;-59
2023/01/26 01:54:48;;;;;;;23.88;8.95;;;1.80;99.90;;;;;;5111126;28;20038;-59
2023/01/26 01:57:26;;;;;;;22.10;9.38;;;1.80;99.90;;;;;;5090346;28;20093;-59
2023/01/26 01:59:58;;;;;;;20.90;7.63;;;1.80;99.90;;;;;;5070579;28;20060;-59
2023/01/26 02:02:24;;;;;;;19.15;7.82;;;1.80;99.90;;;;;;5080696;28;20032;-59
2023/01/26 02:04:50;;;;;;;24.20;8.73;;;1.80;99.90;;;;;;5099898;28;20035;-60
2023/01/26 02:07:16;;;;;;;17.42;7.65;;;1.80;99.90;;;;;;5089980;28;20105;-59
2023/01/26 02:12:31;;;;;;;21.77;7.85;;;1.80;99.90;;;;;;5109598;28;20037;-60
2023/01/26 02:14:57;;;;;;;20.98;8.40;;;1.80;99.90;;;;;;5088868;27;20032;-59
2023/01/26 02:17:23;;;;;;;21.05;7.97;;;1.80;99.90;;;;;;5109281;28;20019;-60
2023/01/26 02:20:18;;;;;;;20.83;7.38;;;1.80;99.90;;;;;;5088795;28;20515;-59
2023/01/26 02:22:47;;;;;;;24.40;7.85;;;1.70;99.90;;;;;;5110671;28;20030;-59
2023/01/26 02:25:37;;;;;;;23.50;7.88;;;1.70;99.90;;;;;;5092839;28;20062;-60
2023/01/26 02:28:03;;;;;;;26.45;9.18;;;1.70;99.90;;;;;;5090752;28;20591;-59
2023/01/26 02:30:31;;;;;;;17.70;7.93;;;1.70;99.90;;;;;;5107650;28;20123;-60
2023/01/26 02:32:57;;;;;;;22.92;8.05;;;1.70;99.90;;;;;;5110225;28;20036;-60
2023/01/26 02:35:22;;;;;;;20.63;8.05;;;1.70;99.90;;;;;;5094475;28;20030;-60
2023/01/26 02:37:48;;;;;;;24.23;8.98;;;1.70;99.90;;;;;;5107773;28;20506;-60
2023/01/26 02:40:28;;;;;;;20.30;8.10;;;1.60;99.90;;;;;;5090621;28;20102;-60
2023/01/26 02:42:54;;;;;;;17.20;7.57;;;1.60;99.90;;;;;;5084242;28;20032;-60
2023/01/26 02:45:20;;;;;;;29.63;9.38;;;1.70;99.90;;;;;;5108259;28;20423;-60
2023/01/26 02:47:46;;;;;;;26.50;9.70;;;1.70;99.90;;;;;;5088326;28;20028;-60
2023/01/26 02:50:12;;;;;;;21.30;8.60;;;1.70;99.90;;;;;;5108859;28;20040;-60
2023/01/26 02:52:38;;;;;;;19.20;7.47;;;1.60;99.90;;;;;;5088271;28;20123;-60
2023/01/26 02:58:09;;;;;;;22.93;8.23;;;1.70;99.90;;;;;;5083130;28;20085;-59
2023/01/26 03:00:36;;;;;;;23.35;9.23;;;1.70;99.90;;;;;;5069023;28;20038;-60
2023/01/26 03:03:10;;;;;;;25.08;9.35;;;1.70;99.90;;;;;;5087230;28;20058;-60
2023/01/26 03:05:36;;;;;;;21.25;8.82;;;1.70;99.90;;;;;;5080945;28;20034;-60
2023/01/26 03:08:04;;;;;;;25.50;8.40;;;1.70;99.90;;;;;;5087959;28;20036;-60
2023/01/26 03:10:30;;;;;;;23.15;8.73;;;1.70;99.90;;;;;;5109376;28;20063;-60
2023/01/26 03:12:56;;;;;;;22.27;8.43;;;1.80;99.90;;;;;;5086453;28;20032;-60
2023/01/26 03:15:41;;;;;;;21.88;8.77;;;1.70;99.90;;;;;;5108798;28;20536;-68
2023/01/26 03:29:13;;;;;;;21.27;7.75;;;1.80;99.90;;;;;;5085408;28;20548;-68
2023/01/26 03:31:39;;;;;;;21.48;7.63;;;1.80;99.90;;;;;;5089247;28;20048;-68
2023/01/26 03:34:04;;;;;;;19.00;6.75;;;1.80;99.90;;;;;;5106313;28;20030;-68
2023/01/26 03:36:30;;;;;;;22.52;7.28;;;1.80;99.90;;;;;;5091362;28;20028;-68
2023/01/26 03:38:55;;;;;;;21.63;7.85;;;1.80;99.90;;;;;;5108992;28;20032;-69
2023/01/26 03:57:47;;;;;;;19.40;7.50;;;1.70;99.90;;;;;;5080939;28;20047;-68
2023/01/26 04:00:14;;;;;;;18.80;7.22;;;1.70;99.90;;;;;;5108226;28;20051;-68
2023/01/26 04:08:23;;;;;;;19.33;7.22;;;1.70;99.90;;;;;;5084217;28;20427;-68
2023/01/26 04:10:55;;;;;;;20.67;7.72;;;1.70;99.90;;;;;;5088425;28;20040;-70
2023/01/26 04:21:37;;;;;;;19.67;7.15;;;1.70;99.90;;;;;;5076647;28;20027;-68
2023/01/26 04:24:13;;;;;;;19.85;7.22;;;1.70;99.90;;;;;;5108450;28;20028;-68
2023/01/26 04:26:39;;;;;;;;;;;1.70;99.90;;;;;;5083119;28;20084;-63
2023/01/26 04:29:10;;;;;;;18.08;7.10;;;1.70;99.90;;;;;;5107274;28;20168;-59
2023/01/26 04:31:36;;;;;;;18.33;6.72;;;1.60;99.90;;;;;;5086212;28;20116;-60
2023/01/26 04:34:03;;;;;;;16.08;6.20;;;1.60;99.90;;;;;;5107716;28;20027;-60
2023/01/26 04:36:29;;;;;;;19.30;6.75;;;1.60;99.90;;;;;;5087652;28;20028;-60
2023/01/26 04:38:55;;;;;;;18.35;7.93;;;1.60;99.90;;;;;;5108455;28;20034;-60
2023/01/26 04:41:21;;;;;;;21.48;7.88;;;1.60;99.90;;;;;;5089576;28;20034;-60
2023/01/26 04:43:46;;;;;;;20.58;7.35;;;1.60;99.90;;;;;;5107022;28;20383;-60
2023/01/26 04:46:12;;;;;;;17.15;7.70;;;1.70;99.90;;;;;;5088776;28;20039;-60
2023/01/26 04:48:38;;;;;;;19.10;8.05;;;1.60;99.90;;;;;;5108345;28;20032;-60
2023/01/26 04:51:06;;;;;;;19.58;6.85;;;1.70;99.90;;;;;;5087514;28;20565;-60
2023/01/26 04:53:33;;;;;;;18.73;7.68;;;1.70;99.90;;;;;;5108065;28;20024;-60
2023/01/26 04:55:58;;;;;;;23.15;8.38;;;1.70;99.90;;;;;;5086667;28;20118;-59
2023/01/26 04:58:24;;;;;;;14.35;6.70;;;1.70;99.90;;;;;;5108362;28;20124;-60
2023/01/26 05:00:51;;;;;;;16.88;6.53;;;1.70;99.90;;;;;;5092215;28;20032;-60
2023/01/26 05:03:16;;;;;;;27.40;8.75;;;1.70;99.90;;;;;;5088401;28;20032;-60
2023/01/26 05:05:42;;;;;;;18.67;7.53;;;1.60;99.90;;;;;;5092104;28;20087;-60
2023/01/26 05:08:07;;;;;;;20.10;6.97;;;1.60;99.90;;;;;;5091736;28;20071;-60
2023/01/26 05:10:33;;;;;;;21.52;8.10;;;1.60;99.90;;;;;;5111579;28;20024;-59
2023/01/26 05:12:59;;;;;;;25.65;8.45;;;1.60;99.90;;;;;;5090437;28;20032;-60
2023/01/26 05:15:24;;;;;;;19.30;7.25;;;1.60;99.90;;;;;;5111640;28;20043;-59
2023/01/26 05:17:50;;;;;;;18.45;7.68;;;1.60;99.90;;;;;;5089935;28;20066;-60
2023/01/26 05:20:16;;;;;;;16.85;6.68;;;1.60;99.90;;;;;;5111493;28;20027;-59
2023/01/26 05:22:42;;;;;;;21.13;8.10;;;1.60;99.90;;;;;;5101026;28;20059;-60
2023/01/26 05:25:08;;;;;;;22.83;8.70;;;1.50;99.90;;;;;;5088131;28;20035;-59
2023/01/26 05:27:34;;;;;;;19.83;7.60;;;1.60;99.90;;;;;;5111448;28;20106;-58
2023/01/26 05:29:59;;;;;;;20.83;7.70;;;1.60;99.90;;;;;;5098402;28;20102;-60
2023/01/26 05:32:29;;;;;;;19.80;7.68;;;1.60;99.90;;;;;;5091695;28;20051;-59
2023/01/26 05:34:55;;;;;;;18.90;7.20;;;1.60;99.90;;;;;;5088082;28;20123;-60
2023/01/26 05:37:24;;;;;;;19.92;7.53;;;1.50;99.90;;;;;;5089851;28;20111;-60
2023/01/26 05:39:49;;;;;;;22.63;7.63;;;1.60;99.90;;;;;;5111471;28;20023;-60
2023/01/26 05:42:16;;;;;;;24.35;8.43;;;1.60;99.90;;;;;;5100383;28;20388;-59
2023/01/26 05:44:41;;;;;;;22.35;8.57;;;1.60;99.90;;;;;;5088196;28;20035;-57
2023/01/26 05:47:07;;;;;;;17.40;7.35;;;1.60;99.90;;;;;;5110958;28;20458;-60
2023/01/26 05:49:32;;;;;;;20.38;7.50;;;1.60;99.90;;;;;;5098949;28;20019;-60
2023/01/26 05:51:58;;;;;;;28.65;10.38;;;1.60;99.90;;;;;;5091483;28;20031;-59
2023/01/26 05:54:23;;;;;;;25.10;9.27;;;1.60;99.90;;;;;;5108159;28;20071;-60
2023/01/26 05:56:49;;;;;;;23.98;8.73;;;1.60;99.90;;;;;;5091394;28;20032;-59
2023/01/26 05:59:15;;;;;;;22.92;7.63;;;1.60;99.90;;;;;;5108580;28;20035;-59
2023/01/26 06:01:40;;;;;;;23.52;8.23;;;1.60;99.90;;;;;;5111147;28;20024;-60
2023/01/26 06:04:06;;;;;;;21.85;7.95;;;1.60;99.90;;;;;;5095028;28;20063;-59
2023/01/26 06:06:32;;;;;;;23.13;7.68;;;1.60;99.90;;;;;;5086303;28;20320;-60
2023/01/26 06:08:58;;;;;;;21.70;8.50;;;1.60;99.90;;;;;;5108699;28;20055;-57
2023/01/26 06:11:23;;;;;;;22.80;9.23;;;1.60;99.90;;;;;;5111120;28;20042;-60
2023/01/26 06:13:49;;;;;;;26.80;8.20;;;1.60;99.90;;;;;;5091927;28;20364;-60
2023/01/26 06:16:14;;;;;;;19.77;7.93;;;1.60;99.90;;;;;;5110435;28;20087;-60
2023/01/26 06:18:40;;;;;;;24.30;6.82;;;1.60;99.90;;;;;;5090442;28;20032;-59
2023/01/26 06:21:05;;;;;;;21.73;8.25;;;1.60;99.90;;;;;;5110460;28;20403;-60
2023/01/26 06:23:31;;;;;;;23.95;9.15;;;1.60;99.90;;;;;;5089422;28;20036;-60
2023/01/26 06:26:00;;;;;;;21.83;8.30;;;1.60;99.90;;;;;;5110390;28;20034;-60
2023/01/26 06:28:27;;;;;;;23.05;8.48;;;1.60;99.90;;;;;;5088476;28;20124;-60
2023/01/26 06:31:02;;;;;;;15.43;7.53;;;1.70;99.90;;;;;;5101777;28;20042;-58
2023/01/26 06:33:28;;;;;;;22.00;8.32;;;1.70;99.90;;;;;;5068249;28;20040;-59
2023/01/26 06:35:54;;;;;;;22.90;7.00;;;1.70;99.90;;;;;;5110601;28;20019;-59
2023/01/26 06:38:20;;;;;;;23.90;8.75;;;1.70;99.90;;;;;;5106920;28;20031;-60
2023/01/26 06:40:46;;;;;;;19.20;7.03;;;1.70;99.90;;;;;;5090398;28;20613;-58
2023/01/26 06:43:11;;;;;;;21.10;8.63;;;1.60;99.90;;;;;;5088236;28;20036;-59
2023/01/26 06:45:36;;;;;;;21.58;8.60;;;1.60;99.90;;;;;;5109437;28;20032;-58
2023/01/26 06:48:02;;;;;;;22.80;8.45;;;1.60;99.90;;;;;;5088493;28;20032;-59
2023/01/26 06:50:31;;;;;;;19.70;7.15;;;1.60;99.90;;;;;;5109260;28;20126;-58
2023/01/26 06:52:59;;;;;;;19.20;7.45;;;1.60;99.90;;;;;;5087703;28;20032;-58
2023/01/26 06:55:38;;;;;;;22.10;8.70;;;1.60;99.90;;;;;;5109247;28;20039;-59
2023/01/26 06:58:03;;;;;;;24.20;8.40;;;1.60;99.90;;;;;;5088113;28;20039;-60
2023/01/26 07:00:29;;;;;;;29.50;9.75;;;1.60;99.90;;;;;;5109105;28;20084;-60
2023/01/26 07:02:54;;;;;;;18.10;7.60;;;1.60;99.90;;;;;;5084906;28;20020;-59
2023/01/26 07:05:20;;;;;;;19.42;8.27;;;1.60;99.90;;;;;;5096733;28;20016;-57
2023/01/26 07:07:45;;;;;;;24.08;9.40;;;1.60;99.90;;;;;;5106774;28;20495;-59
2023/01/26 07:10:11;;;;;;;30.10;10.13;;;1.60;99.90;;;;;;5089764;28;20028;-58
2023/01/26 07:12:44;;;;;;;23.90;8.45;;;1.60;99.90;;;;;;5107088;28;20039;-60
2023/01/26 07:15:11;;;;;;;26.30;8.98;;;1.60;99.90;;;;;;5109787;28;20066;-63
2023/01/26 07:17:38;;;;;;;23.75;8.93;;;1.60;99.90;;;;;;5093590;28;20027;-63
2023/01/26 07:20:04;;;;;;;21.85;8.90;;;1.60;99.90;;;;;;5109328;28;20160;-62
2023/01/26 07:22:30;;;;;;;23.00;9.10;;;1.60;99.90;;;;;;5093187;28;20036;-62
2023/01/26 07:24:55;;;;;;;19.63;8.73;;;1.60;99.90;;;;;;5081445;28;20048;-62
2023/01/26 07:27:21;;;;;;;23.95;9.27;;;1.60;99.90;;;;;;5086870;28;20395;-62
2023/01/26 07:29:46;;;;;;;25.45;8.90;;;1.60;99.90;;;;;;5109521;28;20102;-62
2023/01/26 07:32:12;;;;;;;22.88;8.50;;;1.60;99.90;;;;;;5086507;28;20178;-63
2023/01/26 07:34:37;;;;;;;24.15;9.38;;;1.60;99.90;;;;;;5088974;28;20024;-63
2023/01/26 07:37:04;;;;;;;22.27;7.68;;;1.60;99.90;;;;;;5106445;28;20106;-62
2023/01/26 07:39:29;;;;;;;24.38;8.93;;;1.70;99.90;;;;;;5109411;28;20064;-63
2023/01/26 07:41:55;;;;;;;22.38;7.72;;;1.70;99.90;;;;;;5088186;28;20442;-62
2023/01/26 07:44:20;;;;;;;21.45;8.38;;;1.70;99.90;;;;;;5108971;28;20019;-63
2023/01/26 07:46:46;;;;;;;22.92;8.90;;;1.70;99.90;;;;;;5089291;28;20443;-62
2023/01/26 07:49:11;;;;;;;21.98;7.75;;;1.70;99.90;;;;;;5106889;28;20059;-63
2023/01/26 07:51:38;;;;;;;21.33;7.82;;;1.70;99.90;;;;;;5089238;28;20036;-62
2023/01/26 07:54:04;;;;;;;27.67;9.15;;;1.70;99.90;;;;;;5086317;28;20120;-62
2023/01/26 07:56:30;;;;;;;28.63;9.45;;;1.70;99.90;;;;;;5101088;28;20026;-62
2023/01/26 07:58:55;;;;;;;23.30;9.68;;;1.70;99.90;;;;;;5077117;28;20114;-62
2023/01/26 08:01:21;;;;;;;19.15;8.48;;;1.70;99.90;;;;;;5094808;28;20544;-62
2023/01/26 08:03:49;;;;;;;20.70;8.85;;;1.70;99.90;;;;;;5091023;28;20107;-62
2023/01/26 08:06:17;;;;;;;26.13;11.07;;;1.70;99.90;;;;;;5089485;28;20123;-62
2023/01/26 08:08:43;;;;;;;26.70;9.95;;;1.70;99.90;;;;;;5109193;28;20066;-62
2023/01/26 08:11:09;;;;;;;24.70;9.82;;;1.70;99.90;;;;;;5088038;28;20051;-62
2023/01/26 08:13:35;;;;;;;23.75;10.88;;;1.70;99.90;;;;;;5109087;28;20439;-62
2023/01/26 08:16:08;;;;;;;22.25;9.98;;;1.70;99.90;;;;;;5088094;28;20078;-62
2023/01/26 08:18:33;;;;;;;24.85;9.35;;;1.70;99.90;;;;;;5069269;28;20036;-62
2023/01/26 08:20:59;;;;;;;22.50;9.43;;;1.70;99.90;;;;;;5095284;28;20034;-62
2023/01/26 08:23:24;;;;;;;24.38;9.82;;;1.70;99.90;;;;;;5108920;28;20088;-62
2023/01/26 08:25:50;;;;;;;24.40;10.43;;;1.60;99.90;;;;;;5087815;28;20028;-62
2023/01/26 08:28:15;;;;;;;23.02;9.05;;;1.60;99.90;;;;;;5108812;28;20032;-62
2023/01/26 08:30:41;;;;;;;19.13;8.45;;;1.60;99.90;;;;;;5087703;28;20181;-62
2023/01/26 08:33:07;;;;;;;24.88;9.63;;;1.70;99.90;;;;;;5108647;28;20081;-62
2023/01/26 08:35:33;;;;;;;20.92;9.70;;;1.60;99.90;;;;;;5087820;28;20031;-62
2023/01/26 08:37:59;;;;;;;23.33;9.20;;;1.60;99.90;;;;;;5089037;28;20081;-62
2023/01/26 08:40:25;;;;;;;25.17;9.82;;;1.60;99.90;;;;;;5100635;28;20043;-62
2023/01/26 08:42:51;;;;;;;21.67;8.95;;;1.60;99.90;;;;;;5091023;28;20086;-62
2023/01/26 08:45:16;;;;;;;25.73;9.90;;;1.60;99.90;;;;;;5105943;28;20032;-62
2023/01/26 08:47:42;;;;;;;18.08;7.45;;;1.60;99.90;;;;;;5093275;28;20503;-62
2023/01/26 08:50:08;;;;;;;20.95;7.78;;;1.70;99.90;;;;;;5107087;28;20395;-62
2023/01/26 08:52:34;;;;;;;19.05;8.30;;;1.70;99.90;;;;;;5093203;28;20027;-62
2023/01/26 08:55:00;;;;;;;20.35;8.48;;;1.70;99.90;;;;;;5107988;28;20036;-62
2023/01/26 08:57:26;;;;;;;17.88;7.95;;;1.70;99.90;;;;;;5093095;28;20051;-62
2023/01/26 08:59:51;;;;;;;17.88;7.88;;;1.70;99.90;;;;;;5109201;28;20032;-62
2023/01/26 09:02:17;;;;;;;20.50;8.13;;;1.70;99.90;;;;;;5092984;28;20029;-62
2023/01/26 09:04:42;;;;;;;16.60;6.93;;;1.70;99.90;;;;;;5104430;28;20111;-62
2023/01/26 09:07:08;;;;;;;17.52;7.47;;;1.80;99.90;;;;;;5092926;28;20094;-62
2023/01/26 09:09:34;;;;;;;15.93;6.78;;;1.80;99.90;;;;;;5111063;28;20030;-62
2023/01/26 09:11:59;;;;;;;20.70;7.82;;;1.80;99.90;;;;;;5091325;28;20106;-62
2023/01/26 09:14:26;;;;;;;18.83;7.97;;;1.80;99.90;;;;;;5112264;28;20032;-63
2023/01/26 09:16:51;;;;;;;16.45;6.88;;;1.80;99.90;;;;;;5091268;28;20077;-63
2023/01/26 09:19:17;;;;;;;18.00;7.07;;;1.70;99.90;;;;;;5112287;28;20027;-62
2023/01/26 09:21:43;;;;;;;15.88;6.70;;;1.70;99.90;;;;;;5091306;28;20472;-62
2023/01/26 09:24:08;;;;;;;15.00;6.50;;;1.70;99.90;;;;;;5112084;28;20039;-62
2023/01/26 09:26:34;;;;;;;15.73;7.00;;;1.70;99.90;;;;;;5091125;28;20036;-62
2023/01/26 09:28:59;;;;;;;15.38;6.30;;;1.70;99.90;;;;;;5111939;28;20035;-62
2023/01/26 09:31:24;;;;;;;15.02;7.07;;;1.80;99.90;;;;;;5090890;28;20682;-62
2023/01/26 09:33:50;;;;;;;18.95;6.70;;;1.70;99.90;;;;;;5111909;28;20038;-62
2023/01/26 09:36:16;;;;;;;16.30;6.25;;;1.70;99.90;;;;;;5090880;28;20381;-62
2023/01/26 09:38:41;;;;;;;12.85;5.95;;;1.70;99.90;;;;;;5111898;28;20484;-62
2023/01/26 09:41:12;;;;;;;13.95;6.30;;;1.70;99.90;;;;;;5090780;28;20152;-62
2023/01/26 09:43:51;;;;;;;13.88;5.97;;;1.70;99.90;;;;;;5112107;28;20054;-62
2023/01/26 09:46:36;;;;;;;16.55;5.72;;;1.80;99.90;;;;;;5083536;28;20629;-62
2023/01/26 09:49:06;;;;;;;13.65;5.45;;;1.70;99.90;;;;;;5071824;28;20085;-62
2023/01/26 09:51:35;;;;;;;18.10;6.60;;;1.80;99.90;;;;;;5093440;28;20111;-62
2023/01/26 09:54:15;;;;;;;15.40;7.07;;;1.80;99.90;;;;;;5111547;28;20604;-62
2023/01/26 09:56:41;;;;;;;18.45;6.40;;;1.80;99.90;;;;;;5086790;28;20032;-62
2023/01/26 09:59:33;;;;;;;12.70;5.40;;;1.80;99.90;;;;;;5111578;28;20032;-62
2023/01/26 10:02:33;;;;;;;13.32;6.10;;;1.80;99.90;;;;;;5089115;28;20028;-62
2023/01/26 10:05:06;;;;;;;17.33;6.97;;;1.80;99.90;;;;;;5074541;28;20027;-62
2023/01/26 10:07:32;;;;;;;12.75;6.10;;;1.80;99.90;;;;;;5091639;28;20108;-62
2023/01/26 10:09:58;;;;;;;10.57;5.25;;;1.80;99.90;;;;;;5106796;28;20119;-62
2023/01/26 10:12:28;;;;;;;14.75;6.20;;;1.80;99.90;;;;;;5091786;28;20020;-62
2023/01/26 10:15:26;;;;;;;17.17;5.97;;;1.70;99.90;;;;;;5071224;28;20028;-62
2023/01/26 10:17:53;;;;;;;15.18;6.13;;;1.70;99.90;;;;;;5091552;28;20111;-62
2023/01/26 10:20:37;;;;;;;13.38;6.40;;;1.70;99.90;;;;;;5104097;28;20097;-62
2023/01/26 10:23:15;;;;;;;12.77;5.50;;;1.70;99.90;;;;;;5091401;28;20039;-62
2023/01/26 10:25:43;;;;;;;15.98;7.25;;;1.70;99.90;;;;;;5089383;28;20561;-62
2023/01/26 10:28:27;;;;;;;13.40;6.10;;;1.70;99.90;;;;;;5111218;28;20503;-62
2023/01/26 10:30:53;;;;;;;15.80;6.85;;;1.70;99.90;;;;;;5079099;28;20032;-68
2023/01/26 10:33:24;;;;;;;15.02;6.45;;;1.60;99.90;;;;;;5110785;28;20121;-59
2023/01/26 10:35:50;;;;;;;16.42;6.47;;;1.60;99.90;;;;;;5089823;28;20049;-59
2023/01/26 10:38:34;;;;;;;12.90;6.63;;;1.60;99.90;;;;;;5110726;28;20045;-57
2023/01/26 10:41:02;;;;;;;16.30;6.93;;;1.50;99.90;;;;;;5089605;28;20032;-59
2023/01/26 10:43:28;;;;;;;16.80;6.75;;;1.50;99.90;;;;;;5111018;28;20037;-58
2023/01/26 10:45:54;;;;;;;17.40;6.95;;;1.40;99.90;;;;;;5089390;28;20515;-58
2023/01/26 10:48:25;;;;;;;17.05;6.68;;;1.40;99.90;;;;;;5110525;28;20036;-58
2023/01/26 10:50:52;;;;;;;15.25;7.38;;;1.40;99.90;;;;;;5088263;28;20571;-57
2023/01/26 10:53:24;;;;;;;14.55;6.80;;;1.40;99.90;;;;;;5091136;28;20148;-57
2023/01/26 10:56:11;;;;;;;16.08;7.13;;;1.40;99.90;;;;;;5076948;28;20056;-58
2023/01/26 10:58:53;;;;;;;17.98;7.15;;;1.50;99.90;;;;;;5070619;28;20038;-57
2023/01/26 11:01:26;;;;;;;17.98;5.88;;;1.50;99.90;;;;;;5095311;28;20036;-58
2023/01/26 11:04:11;;;;;;;15.43;6.03;;;1.50;99.90;;;;;;5070399;28;20033;-59
2023/01/26 11:06:36;;;;;;;14.65;6.63;;;1.50;99.90;;;;;;5080234;28;20043;-57
2023/01/26 11:09:10;;;;;;;14.38;5.95;;;1.60;99.90;;;;;;5110015;28;20023;-58
2023/01/26 11:11:36;;;;;;;15.50;6.47;;;1.60;99.90;;;;;;5088916;28;20028;-57
2023/01/26 11:14:16;;;;;;;11.60;6.07;;;1.60;99.90;;;;;;5109949;28;20034;-58
2023/01/26 11:16:49;;;;;;;11.55;5.32;;;1.70;99.90;;;;;;5088790;28;20107;-66
2023/01/26 11:19:39;;;;;;;16.95;7.53;;;1.70;99.90;;;;;;5090362;28;20032;-66
2023/01/26 11:22:09;;;;;;;14.20;6.03;;;1.70;99.90;;;;;;5088434;28;20020;-65
2023/01/26 11:25:07;;;;;;;11.13;5.30;;;1.70;99.90;;;;;;5110396;28;20024;-66
2023/01/26 11:27:40;;;;;;;15.10;6.20;;;1.70;99.90;;;;;;5069981;28;20032;-66
2023/01/26 11:30:24;;;;;;;13.57;6.78;;;1.70;99.90;;;;;;5071216;28;20039;-66
2023/01/26 11:33:04;;;;;;;15.75;6.97;;;1.70;99.90;;;;;;5090201;28;20511;-66
2023/01/26 11:35:44;;;;;;;13.40;5.95;;;1.70;99.90;;;;;;5088072;28;20036;-66
2023/01/26 11:38:36;;;;;;;14.50;6.65;;;1.70;99.90;;;;;;5089989;28;20024;-67
2023/01/26 11:41:37;;;;;;;17.42;7.75;;;1.70;99.90;;;;;;5088056;28;20100;-66
2023/01/26 11:44:24;;;;;;;21.17;7.57;;;1.70;99.90;;;;;;5069758;28;20107;-66
2023/01/26 11:47:07;;;;;;;18.08;7.63;;;1.70;99.90;;;;;;5085807;28;20020;-66
2023/01/26 11:49:53;;;;;;;15.18;6.30;;;1.60;99.90;;;;;;5068339;28;20410;-65
2023/01/26 11:52:50;;;;;;;16.50;7.07;;;1.60;99.90;;;;;;5069606;28;20696;-65
2023/01/26 11:55:43;;;;;;;16.65;6.57;;;1.60;99.90;;;;;;5072338;28;20039;-66
2023/01/26 11:58:25;;;;;;;15.20;6.93;;;1.60;99.90;;;;;;5089793;28;20581;-65
2023/01/26 12:00:53;;;;;;;21.60;8.25;;;1.60;99.90;;;;;;5086834;28;20028;-65
2023/01/26 12:03:44;;;;;;;15.18;6.25;;;1.60;99.90;;;;;;5089686;28;20028;-66
2023/01/26 12:06:36;;;;;;;21.60;7.65;;;1.60;99.90;;;;;;5075888;28;20430;-65
2023/01/26 12:09:20;;;;;;;18.70;7.55;;;1.60;99.90;;;;;;5062714;28;20040;-66
2023/01/26 12:11:56;;;;;;;21.90;8.60;;;1.60;99.90;;;;;;5084891;28;20103;-65
2023/01/26 12:14:29;;;;;;;21.02;8.73;;;1.50;99.90;;;;;;5069230;28;20508;-65
2023/01/26 12:17:04;;;;;;;15.25;6.97;;;1.50;99.90;;;;;;5081293;28;20028;-66
2023/01/26 12:19:51;;;;;;;17.15;7.75;;;1.50;99.90;;;;;;5109074;28;20031;-65
2023/01/26 12:22:32;;;;;;;16.42;7.00;;;1.50;99.90;;;;;;5069191;28;20040;-66
2023/01/26 12:25:13;;;;;;;15.07;6.90;;;1.50;99.90;;;;;;5103860;28;20374;-65
2023/01/26 12:27:55;;;;;;;15.13;7.10;;;1.50;99.90;;;;;;5089330;28;20024;-65
2023/01/26 12:30:34;;;;;;;20.00;7.93;;;1.50;99.90;;;;;;5072522;28;20154;-65
2023/01/26 12:33:00;;;;;;;16.33;7.85;;;1.50;99.90;;;;;;5089189;28;20020;-65
2023/01/26 12:35:49;;;;;;;13.70;6.82;;;1.50;99.90;;;;;;5100623;28;20173;-66
2023/01/26 12:38:38;;;;;;;17.08;6.70;;;1.50;99.90;;;;;;5068920;28;20082;-65
2023/01/26 12:41:22;;;;;;;17.23;7.57;;;1.50;99.90;;;;;;5078523;28;20035;-65
2023/01/26 12:43:55;;;;;;;14.93;6.88;;;1.50;99.90;;;;;;5089138;28;20031;-65
2023/01/26 12:46:23;;;;;;;16.35;7.55;;;1.50;99.90;;;;;;5081048;28;20036;-66
2023/01/26 12:49:02;;;;;;;15.35;7.20;;;1.50;99.90;;;;;;5108939;28;20028;-66
2023/01/26 12:51:45;;;;;;;13.25;6.22;;;1.50;99.90;;;;;;5082042;28;20090;-65
2023/01/26 12:54:37;;;;;;;20.60;8.60;;;1.40;99.90;;;;;;5068738;28;20374;-66
2023/01/26 12:57:10;;;;;;;17.55;7.88;;;1.40;99.90;;;;;;5086958;28;20050;-65
2023/01/26 12:59:38;;;;;;;15.45;6.78;;;1.40;99.90;;;;;;5068867;28;20107;-65
2023/01/26 13:02:24;;;;;;;16.50;6.95;;;1.40;99.90;;;;;;5086765;28;20024;-65
2023/01/26 13:04:50;;;;;;;12.68;6.22;;;1.40;99.90;;;;;;5070573;28;20032;-66
2023/01/26 13:07:36;;;;;;;14.45;7.07;;;1.40;99.90;;;;;;5082424;28;20083;-66
2023/01/26 13:10:13;;;;;;;15.18;7.32;;;1.40;99.90;;;;;;5100912;28;20024;-65
2023/01/26 13:12:52;;;;;;;17.02;7.40;;;1.40;99.90;;;;;;5089005;28;20032;-66
2023/01/26 13:15:20;;;;;;;15.35;7.22;;;1.40;99.90;;;;;;5074788;28;20028;-65
2023/01/26 13:17:59;;;;;;;12.20;6.45;;;1.40;99.90;;;;;;5108818;28;20491;-65
2023/01/26 13:20:47;;;;;;;14.65;7.25;;;1.40;99.90;;;;;;5075746;28;20153;-66
2023/01/26 13:23:27;;;;;;;15.60;6.60;;;1.40;99.90;;;;;;5068710;28;20025;-65
2023/01/26 13:26:16;;;;;;;13.80;6.10;;;1.40;99.90;;;;;;5093073;28;20028;-65
2023/01/26 13:28:42;;;;;;;14.75;6.15;;;1.40;99.90;;;;;;5071620;28;20028;-65
2023/01/26 13:31:10;;;;;;;16.02;6.75;;;1.40;99.90;;;;;;5092177;28;20040;-65
2023/01/26 13:33:35;;;;;;;12.80;6.32;;;1.40;99.90;;;;;;5110492;28;20047;-66
2023/01/26 13:36:04;;;;;;;14.02;6.63;;;1.40;99.90;;;;;;5112740;28;20470;-65
2023/01/26 13:38:39;;;;;;;18.88;7.53;;;1.40;99.90;;;;;;5090612;28;20438;-65
2023/01/26 13:41:18;;;;;;;15.10;6.95;;;1.40;99.90;;;;;;5092469;28;20025;-65
2023/01/26 13:43:51;;;;;;;14.50;6.35;;;1.40;99.90;;;;;;5089410;28;20577;-65
2023/01/26 13:46:24;;;;;;;15.55;7.00;;;1.40;99.90;;;;;;5105623;28;20093;-66
2023/01/26 13:48:54;;;;;;;11.70;5.97;;;1.40;99.90;;;;;;5078014;28;20028;-66
2023/01/26 13:51:26;;;;;;;14.65;7.55;;;1.40;99.90;;;;;;5112052;28;20517;-65